sensor_id;sensor_type;location;lat;lon;timestamp;P1;durP1;ratioP1;P2;durP2;ratioP2
63690;SDS011;49837;57.280;27.070;2023-09-12T00:00:21;4.0;;;2.4;;
63690;SDS011;49837;57.280;27.070;2023-09-12T00:01:21;9.8;;;2.6;;
63690;SDS011;49837;57.280;27.070;2023-09-12T00:02:21;4.2;;;2.5;;
63690;SDS011;49837;57.280;27.070;2023-09-12T00:03:22;4.4;;;2.3;;
63690;SDS011;49837;57.280;27.070;2023-09-12T00:04:22;5.2;;;2.4;;
63690;SDS011;49837;57.280;27.070;2023-09-12T00:05:23;8.6;;;2.6;;
63690;SDS011;49837;57.280;27.070;2023-09-12T00:06:23;5.8;;;2.4;;
63690;SDS011;49837;57.280;27.070;2023-09-12T00:07:24;5.2;;;2.1;;
63690;SDS011;49837;57.280;27.070;2023-09-12T00:08:24;6.9;;;2.2;;
63690;SDS011;49837;57.280;27.070;2023-09-12T00:09:25;5.1;;;2.4;;
63690;SDS011;49837;57.280;27.070;2023-09-12T00:10:25;5.9;;;2.3;;
63690;SDS011;49837;57.280;27.070;2023-09-12T00:11:25;5.3;;;2.3;;
63690;SDS011;49837;57.280;27.070;2023-09-12T00:12:26;6.9;;;2.4;;
63690;SDS011;49837;57.280;27.070;2023-09-12T00:13:26;6.3;;;2.5;;
63690;SDS011;49837;57.280;27.070;2023-09-12T00:14:27;5.9;;;2.5;;
63690;SDS011;49837;57.280;27.070;2023-09-12T00:15:27;3.6;;;2.3;;
63690;SDS011;49837;57.280;27.070;2023-09-12T00:16:28;4.3;;;2.3;;
63690;SDS011;49837;57.280;27.070;2023-09-12T00:17:28;4.9;;;2.4;;
63690;SDS011;49837;57.280;27.070;2023-09-12T00:18:29;8.0;;;2.5;;
63690;SDS011;49837;57.280;27.070;2023-09-12T00:19:30;4.8;;;2.2;;
63690;SDS011;49837;57.280;27.070;2023-09-12T00:20:30;6.1;;;2.4;;
63690;SDS011;49837;57.280;27.070;2023-09-12T00:21:31;9.0;;;2.5;;
63690;SDS011;49837;57.280;27.070;2023-09-12T00:22:31;6.5;;;2.5;;
63690;SDS011;49837;57.280;27.070;2023-09-12T00:23:31;5.4;;;2.4;;
63690;SDS011;49837;57.280;27.070;2023-09-12T00:24:32;3.8;;;2.3;;
63690;SDS011;49837;57.280;27.070;2023-09-12T00:25:32;6.3;;;2.4;;
63690;SDS011;49837;57.280;27.070;2023-09-12T00:26:33;5.0;;;2.4;;
63690;SDS011;49837;57.280;27.070;2023-09-12T00:27:33;6.2;;;2.7;;
63690;SDS011;49837;57.280;27.070;2023-09-12T00:28:34;4.5;;;2.4;;
63690;SDS011;49837;57.280;27.070;2023-09-12T00:29:34;4.7;;;2.7;;
63690;SDS011;49837;57.280;27.070;2023-09-12T00:30:34;4.0;;;2.3;;
63690;SDS011;49837;57.280;27.070;2023-09-12T00:31:35;8.5;;;2.5;;
63690;SDS011;49837;57.280;27.070;2023-09-12T00:32:35;5.2;;;2.1;;
63690;SDS011;49837;57.280;27.070;2023-09-12T00:33:36;5.8;;;2.1;;
63690;SDS011;49837;57.280;27.070;2023-09-12T00:34:36;5.3;;;2.5;;
63690;SDS011;49837;57.280;27.070;2023-09-12T00:35:37;7.0;;;2.3;;
63690;SDS011;49837;57.280;27.070;2023-09-12T00:36:37;5.0;;;2.4;;
63690;SDS011;49837;57.280;27.070;2023-09-12T00:37:38;5.4;;;2.5;;
63690;SDS011;49837;57.280;27.070;2023-09-12T00:38:38;4.5;;;2.3;;
63690;SDS011;49837;57.280;27.070;2023-09-12T00:39:38;5.6;;;2.3;;
63690;SDS011;49837;57.280;27.070;2023-09-12T00:40:39;5.1;;;2.3;;
63690;SDS011;49837;57.280;27.070;2023-09-12T00:41:39;6.8;;;2.3;;
63690;SDS011;49837;57.280;27.070;2023-09-12T00:42:40;4.7;;;2.2;;
63690;SDS011;49837;57.280;27.070;2023-09-12T00:43:40;5.5;;;2.1;;
63690;SDS011;49837;57.280;27.070;2023-09-12T00:44:41;3.6;;;2.3;;
63690;SDS011;49837;57.280;27.070;2023-09-12T00:45:41;5.5;;;2.2;;
63690;SDS011;49837;57.280;27.070;2023-09-12T00:46:42;4.5;;;2.5;;
63690;SDS011;49837;57.280;27.070;2023-09-12T00:47:42;6.0;;;2.4;;
63690;SDS011;49837;57.280;27.070;2023-09-12T00:48:43;5.2;;;2.3;;
63690;SDS011;49837;57.280;27.070;2023-09-12T00:49:43;5.5;;;2.3;;
63690;SDS011;49837;57.280;27.070;2023-09-12T00:50:46;3.5;;;2.3;;
63690;SDS011;49837;57.280;27.070;2023-09-12T00:51:47;6.1;;;2.3;;
63690;SDS011;49837;57.280;27.070;2023-09-12T00:52:47;4.4;;;2.5;;
63690;SDS011;49837;57.280;27.070;2023-09-12T00:53:47;5.1;;;2.4;;
63690;SDS011;49837;57.280;27.070;2023-09-12T00:54:48;6.3;;;2.2;;
63690;SDS011;49837;57.280;27.070;2023-09-12T00:55:50;2.8;;;2.2;;
63690;SDS011;49837;57.280;27.070;2023-09-12T00:56:51;6.2;;;2.2;;
63690;SDS011;49837;57.280;27.070;2023-09-12T00:57:51;4.5;;;2.6;;
63690;SDS011;49837;57.280;27.070;2023-09-12T00:58:52;5.5;;;2.7;;
63690;SDS011;49837;57.280;27.070;2023-09-12T00:59:52;7.0;;;2.8;;
63690;SDS011;49837;57.280;27.070;2023-09-12T01:00:53;6.2;;;2.2;;
63690;SDS011;49837;57.280;27.070;2023-09-12T01:01:53;5.9;;;2.3;;
63690;SDS011;49837;57.280;27.070;2023-09-12T01:02:53;3.5;;;2.3;;
63690;SDS011;49837;57.280;27.070;2023-09-12T01:03:54;4.4;;;2.5;;
63690;SDS011;49837;57.280;27.070;2023-09-12T01:04:54;8.1;;;2.7;;
63690;SDS011;49837;57.280;27.070;2023-09-12T01:05:55;2.6;;;2.3;;
63690;SDS011;49837;57.280;27.070;2023-09-12T01:06:55;4.5;;;2.2;;
63690;SDS011;49837;57.280;27.070;2023-09-12T01:07:55;6.2;;;2.5;;
63690;SDS011;49837;57.280;27.070;2023-09-12T01:08:56;6.6;;;2.6;;
63690;SDS011;49837;57.280;27.070;2023-09-12T01:09:56;7.4;;;2.9;;
63690;SDS011;49837;57.280;27.070;2023-09-12T01:10:57;5.5;;;2.4;;
63690;SDS011;49837;57.280;27.070;2023-09-12T01:11:57;5.4;;;2.5;;
63690;SDS011;49837;57.280;27.070;2023-09-12T01:12:58;6.2;;;2.4;;
63690;SDS011;49837;57.280;27.070;2023-09-12T01:13:58;5.9;;;2.4;;
63690;SDS011;49837;57.280;27.070;2023-09-12T01:14:59;5.8;;;2.3;;
63690;SDS011;49837;57.280;27.070;2023-09-12T01:16:00;2.8;;;2.2;;
63690;SDS011;49837;57.280;27.070;2023-09-12T01:17:00;3.8;;;2.2;;
63690;SDS011;49837;57.280;27.070;2023-09-12T01:18:01;6.6;;;2.5;;
63690;SDS011;49837;57.280;27.070;2023-09-12T01:19:01;4.1;;;2.4;;
63690;SDS011;49837;57.280;27.070;2023-09-12T01:20:02;3.5;;;2.3;;
63690;SDS011;49837;57.280;27.070;2023-09-12T01:22:27;6.0;;;2.5;;
63690;SDS011;49837;57.280;27.070;2023-09-12T01:25:26;5.4;;;2.6;;
63690;SDS011;49837;57.280;27.070;2023-09-12T01:26:35;5.4;;;2.4;;
63690;SDS011;49837;57.280;27.070;2023-09-12T01:27:28;5.4;;;2.4;;
63690;SDS011;49837;57.280;27.070;2023-09-12T01:28:30;5.3;;;2.7;;
63690;SDS011;49837;57.280;27.070;2023-09-12T01:29:30;3.9;;;2.3;;
63690;SDS011;49837;57.280;27.070;2023-09-12T01:30:31;4.6;;;2.2;;
63690;SDS011;49837;57.280;27.070;2023-09-12T01:31:32;4.4;;;2.5;;
63690;SDS011;49837;57.280;27.070;2023-09-12T01:32:34;4.6;;;2.4;;
63690;SDS011;49837;57.280;27.070;2023-09-12T01:33:34;4.7;;;2.4;;
63690;SDS011;49837;57.280;27.070;2023-09-12T01:34:35;3.1;;;2.4;;
63690;SDS011;49837;57.280;27.070;2023-09-12T01:35:35;8.3;;;2.3;;
63690;SDS011;49837;57.280;27.070;2023-09-12T01:36:36;5.1;;;2.4;;
63690;SDS011;49837;57.280;27.070;2023-09-12T01:37:36;4.9;;;2.4;;
63690;SDS011;49837;57.280;27.070;2023-09-12T01:38:36;5.1;;;2.5;;
63690;SDS011;49837;57.280;27.070;2023-09-12T01:39:37;4.9;;;2.7;;
63690;SDS011;49837;57.280;27.070;2023-09-12T01:40:44;5.0;;;2.4;;
63690;SDS011;49837;57.280;27.070;2023-09-12T01:41:41;6.9;;;2.6;;
63690;SDS011;49837;57.280;27.070;2023-09-12T01:42:45;6.2;;;2.7;;
63690;SDS011;49837;57.280;27.070;2023-09-12T01:43:45;4.8;;;2.7;;
63690;SDS011;49837;57.280;27.070;2023-09-12T01:44:45;6.5;;;2.7;;
63690;SDS011;49837;57.280;27.070;2023-09-12T01:45:47;5.2;;;2.7;;
63690;SDS011;49837;57.280;27.070;2023-09-12T01:46:47;3.1;;;2.3;;
63690;SDS011;49837;57.280;27.070;2023-09-12T01:47:47;3.4;;;2.1;;
63690;SDS011;49837;57.280;27.070;2023-09-12T01:48:48;5.5;;;2.4;;
63690;SDS011;49837;57.280;27.070;2023-09-12T01:49:51;4.5;;;2.3;;
63690;SDS011;49837;57.280;27.070;2023-09-12T01:50:49;3.2;;;2.1;;
63690;SDS011;49837;57.280;27.070;2023-09-12T01:51:50;5.0;;;2.2;;
63690;SDS011;49837;57.280;27.070;2023-09-12T01:52:50;3.6;;;2.1;;
63690;SDS011;49837;57.280;27.070;2023-09-12T01:53:51;4.7;;;2.5;;
63690;SDS011;49837;57.280;27.070;2023-09-12T01:54:51;4.7;;;2.2;;
63690;SDS011;49837;57.280;27.070;2023-09-12T01:55:52;4.7;;;2.2;;
63690;SDS011;49837;57.280;27.070;2023-09-12T01:56:53;4.5;;;2.4;;
63690;SDS011;49837;57.280;27.070;2023-09-12T01:57:53;3.5;;;2.4;;
63690;SDS011;49837;57.280;27.070;2023-09-12T01:58:53;4.2;;;2.1;;
63690;SDS011;49837;57.280;27.070;2023-09-12T01:59:53;4.5;;;2.4;;
63690;SDS011;49837;57.280;27.070;2023-09-12T02:00:54;4.3;;;2.3;;
63690;SDS011;49837;57.280;27.070;2023-09-12T02:01:54;3.8;;;2.2;;
63690;SDS011;49837;57.280;27.070;2023-09-12T02:02:55;5.6;;;2.2;;
63690;SDS011;49837;57.280;27.070;2023-09-12T02:03:55;5.0;;;2.5;;
63690;SDS011;49837;57.280;27.070;2023-09-12T02:05:14;4.0;;;2.2;;
63690;SDS011;49837;57.280;27.070;2023-09-12T02:05:57;3.8;;;2.3;;
63690;SDS011;49837;57.280;27.070;2023-09-12T02:06:58;3.4;;;2.3;;
63690;SDS011;49837;57.280;27.070;2023-09-12T02:07:58;5.3;;;2.2;;
63690;SDS011;49837;57.280;27.070;2023-09-12T02:08:58;4.6;;;2.1;;
63690;SDS011;49837;57.280;27.070;2023-09-12T02:09:59;3.8;;;2.2;;
63690;SDS011;49837;57.280;27.070;2023-09-12T02:10:59;5.2;;;2.8;;
63690;SDS011;49837;57.280;27.070;2023-09-12T02:12:00;3.5;;;2.3;;
63690;SDS011;49837;57.280;27.070;2023-09-12T02:13:00;4.0;;;2.5;;
63690;SDS011;49837;57.280;27.070;2023-09-12T02:14:01;4.6;;;2.3;;
63690;SDS011;49837;57.280;27.070;2023-09-12T02:15:01;4.5;;;2.3;;
63690;SDS011;49837;57.280;27.070;2023-09-12T02:16:02;3.8;;;2.3;;
63690;SDS011;49837;57.280;27.070;2023-09-12T02:17:02;3.6;;;2.3;;
63690;SDS011;49837;57.280;27.070;2023-09-12T02:18:03;6.4;;;2.4;;
63690;SDS011;49837;57.280;27.070;2023-09-12T02:19:04;4.0;;;2.2;;
63690;SDS011;49837;57.280;27.070;2023-09-12T02:20:04;4.1;;;2.3;;
63690;SDS011;49837;57.280;27.070;2023-09-12T02:21:04;4.8;;;2.3;;
63690;SDS011;49837;57.280;27.070;2023-09-12T02:22:04;5.0;;;2.4;;
63690;SDS011;49837;57.280;27.070;2023-09-12T02:23:05;6.7;;;2.5;;
63690;SDS011;49837;57.280;27.070;2023-09-12T02:24:05;5.5;;;2.4;;
63690;SDS011;49837;57.280;27.070;2023-09-12T02:25:06;6.1;;;2.6;;
63690;SDS011;49837;57.280;27.070;2023-09-12T02:26:06;4.5;;;2.5;;
63690;SDS011;49837;57.280;27.070;2023-09-12T02:27:07;5.8;;;2.5;;
63690;SDS011;49837;57.280;27.070;2023-09-12T02:28:07;4.4;;;2.4;;
63690;SDS011;49837;57.280;27.070;2023-09-12T02:29:07;4.8;;;2.5;;
63690;SDS011;49837;57.280;27.070;2023-09-12T02:30:08;6.1;;;2.4;;
63690;SDS011;49837;57.280;27.070;2023-09-12T02:31:11;5.7;;;2.5;;
63690;SDS011;49837;57.280;27.070;2023-09-12T02:32:09;3.5;;;2.2;;
63690;SDS011;49837;57.280;27.070;2023-09-12T02:33:09;5.9;;;3.3;;
63690;SDS011;49837;57.280;27.070;2023-09-12T02:34:10;6.5;;;2.6;;
63690;SDS011;49837;57.280;27.070;2023-09-12T02:35:10;5.5;;;2.4;;
63690;SDS011;49837;57.280;27.070;2023-09-12T02:36:11;4.9;;;2.7;;
63690;SDS011;49837;57.280;27.070;2023-09-12T02:37:11;5.7;;;2.6;;
63690;SDS011;49837;57.280;27.070;2023-09-12T02:38:12;5.3;;;2.6;;
63690;SDS011;49837;57.280;27.070;2023-09-12T02:39:12;4.2;;;2.5;;
63690;SDS011;49837;57.280;27.070;2023-09-12T02:40:13;5.5;;;2.3;;
63690;SDS011;49837;57.280;27.070;2023-09-12T02:41:13;4.3;;;2.4;;
63690;SDS011;49837;57.280;27.070;2023-09-12T02:42:13;4.3;;;2.4;;
63690;SDS011;49837;57.280;27.070;2023-09-12T02:43:14;6.9;;;2.7;;
63690;SDS011;49837;57.280;27.070;2023-09-12T02:44:14;5.9;;;2.3;;
63690;SDS011;49837;57.280;27.070;2023-09-12T02:45:15;3.2;;;2.4;;
63690;SDS011;49837;57.280;27.070;2023-09-12T02:46:15;5.7;;;2.7;;
63690;SDS011;49837;57.280;27.070;2023-09-12T02:47:16;6.3;;;2.6;;
63690;SDS011;49837;57.280;27.070;2023-09-12T02:48:16;6.3;;;2.6;;
63690;SDS011;49837;57.280;27.070;2023-09-12T02:49:17;4.7;;;2.4;;
63690;SDS011;49837;57.280;27.070;2023-09-12T02:50:17;6.3;;;2.7;;
63690;SDS011;49837;57.280;27.070;2023-09-12T02:51:17;5.4;;;2.8;;
63690;SDS011;49837;57.280;27.070;2023-09-12T02:52:18;4.4;;;2.8;;
63690;SDS011;49837;57.280;27.070;2023-09-12T02:53:18;4.9;;;2.6;;
63690;SDS011;49837;57.280;27.070;2023-09-12T02:54:19;6.9;;;2.7;;
63690;SDS011;49837;57.280;27.070;2023-09-12T02:55:19;6.5;;;3.1;;
63690;SDS011;49837;57.280;27.070;2023-09-12T02:56:20;7.3;;;3.1;;
63690;SDS011;49837;57.280;27.070;2023-09-12T02:57:21;7.2;;;3.4;;
63690;SDS011;49837;57.280;27.070;2023-09-12T02:58:21;6.6;;;4.2;;
63690;SDS011;49837;57.280;27.070;2023-09-12T02:59:22;9.5;;;5.5;;
63690;SDS011;49837;57.280;27.070;2023-09-12T03:00:22;10.1;;;5.8;;
63690;SDS011;49837;57.280;27.070;2023-09-12T03:01:23;14.1;;;6.6;;
63690;SDS011;49837;57.280;27.070;2023-09-12T03:02:24;8.3;;;5.5;;
63690;SDS011;49837;57.280;27.070;2023-09-12T03:03:24;6.8;;;4.1;;
63690;SDS011;49837;57.280;27.070;2023-09-12T03:04:25;8.1;;;4.4;;
63690;SDS011;49837;57.280;27.070;2023-09-12T03:05:25;7.3;;;4.2;;
63690;SDS011;49837;57.280;27.070;2023-09-12T03:06:25;8.0;;;4.4;;
63690;SDS011;49837;57.280;27.070;2023-09-12T03:07:26;6.8;;;4.1;;
63690;SDS011;49837;57.280;27.070;2023-09-12T03:08:26;11.9;;;4.3;;
63690;SDS011;49837;57.280;27.070;2023-09-12T03:09:27;6.8;;;4.2;;
63690;SDS011;49837;57.280;27.070;2023-09-12T03:10:28;7.2;;;3.7;;
63690;SDS011;49837;57.280;27.070;2023-09-12T03:11:28;7.4;;;3.7;;
63690;SDS011;49837;57.280;27.070;2023-09-12T03:12:29;6.5;;;3.6;;
63690;SDS011;49837;57.280;27.070;2023-09-12T03:13:29;8.2;;;3.8;;
63690;SDS011;49837;57.280;27.070;2023-09-12T03:14:30;7.1;;;3.5;;
63690;SDS011;49837;57.280;27.070;2023-09-12T03:15:35;6.5;;;3.5;;
63690;SDS011;49837;57.280;27.070;2023-09-12T03:16:32;6.6;;;3.2;;
63690;SDS011;49837;57.280;27.070;2023-09-12T03:17:32;6.4;;;3.4;;
63690;SDS011;49837;57.280;27.070;2023-09-12T03:18:33;8.0;;;3.6;;
63690;SDS011;49837;57.280;27.070;2023-09-12T03:19:33;6.4;;;3.6;;
63690;SDS011;49837;57.280;27.070;2023-09-12T03:20:37;6.7;;;2.9;;
63690;SDS011;49837;57.280;27.070;2023-09-12T03:21:35;5.6;;;3.0;;
63690;SDS011;49837;57.280;27.070;2023-09-12T03:22:35;4.8;;;3.0;;
63690;SDS011;49837;57.280;27.070;2023-09-12T03:23:36;6.3;;;2.9;;
63690;SDS011;49837;57.280;27.070;2023-09-12T03:24:36;6.2;;;3.2;;
63690;SDS011;49837;57.280;27.070;2023-09-12T03:25:37;5.5;;;3.0;;
63690;SDS011;49837;57.280;27.070;2023-09-12T03:26:37;6.1;;;3.1;;
63690;SDS011;49837;57.280;27.070;2023-09-12T03:27:37;7.3;;;3.1;;
63690;SDS011;49837;57.280;27.070;2023-09-12T03:28:38;5.3;;;2.5;;
63690;SDS011;49837;57.280;27.070;2023-09-12T03:29:38;5.3;;;2.9;;
63690;SDS011;49837;57.280;27.070;2023-09-12T03:30:39;6.5;;;2.9;;
63690;SDS011;49837;57.280;27.070;2023-09-12T03:31:39;7.7;;;3.2;;
63690;SDS011;49837;57.280;27.070;2023-09-12T03:32:40;7.6;;;3.2;;
63690;SDS011;49837;57.280;27.070;2023-09-12T03:33:41;8.3;;;3.3;;
63690;SDS011;49837;57.280;27.070;2023-09-12T03:34:41;6.2;;;2.9;;
63690;SDS011;49837;57.280;27.070;2023-09-12T03:35:42;10.4;;;3.3;;
63690;SDS011;49837;57.280;27.070;2023-09-12T03:36:42;5.8;;;2.8;;
63690;SDS011;49837;57.280;27.070;2023-09-12T03:37:42;5.5;;;2.9;;
63690;SDS011;49837;57.280;27.070;2023-09-12T03:38:43;6.7;;;3.1;;
63690;SDS011;49837;57.280;27.070;2023-09-12T03:39:43;7.2;;;2.9;;
63690;SDS011;49837;57.280;27.070;2023-09-12T03:40:44;7.8;;;3.0;;
63690;SDS011;49837;57.280;27.070;2023-09-12T03:41:44;7.7;;;3.3;;
63690;SDS011;49837;57.280;27.070;2023-09-12T03:42:45;8.3;;;3.0;;
63690;SDS011;49837;57.280;27.070;2023-09-12T03:43:45;8.6;;;3.0;;
63690;SDS011;49837;57.280;27.070;2023-09-12T03:44:45;6.0;;;3.0;;
63690;SDS011;49837;57.280;27.070;2023-09-12T03:45:46;7.1;;;3.3;;
63690;SDS011;49837;57.280;27.070;2023-09-12T03:46:46;10.7;;;3.8;;
63690;SDS011;49837;57.280;27.070;2023-09-12T03:47:47;6.3;;;3.5;;
63690;SDS011;49837;57.280;27.070;2023-09-12T03:48:47;6.7;;;2.9;;
63690;SDS011;49837;57.280;27.070;2023-09-12T03:49:48;6.7;;;3.3;;
63690;SDS011;49837;57.280;27.070;2023-09-12T03:50:48;8.2;;;3.3;;
63690;SDS011;49837;57.280;27.070;2023-09-12T03:51:49;8.9;;;3.3;;
63690;SDS011;49837;57.280;27.070;2023-09-12T03:52:49;5.5;;;3.2;;
63690;SDS011;49837;57.280;27.070;2023-09-12T03:53:49;5.4;;;2.9;;
63690;SDS011;49837;57.280;27.070;2023-09-12T03:54:50;5.7;;;2.9;;
63690;SDS011;49837;57.280;27.070;2023-09-12T03:55:50;6.1;;;2.8;;
63690;SDS011;49837;57.280;27.070;2023-09-12T03:56:51;5.9;;;2.9;;
63690;SDS011;49837;57.280;27.070;2023-09-12T03:57:51;5.7;;;3.1;;
63690;SDS011;49837;57.280;27.070;2023-09-12T03:58:52;6.6;;;2.9;;
63690;SDS011;49837;57.280;27.070;2023-09-12T03:59:52;5.8;;;2.9;;
63690;SDS011;49837;57.280;27.070;2023-09-12T04:00:53;5.4;;;3.1;;
63690;SDS011;49837;57.280;27.070;2023-09-12T04:01:54;6.1;;;3.1;;
63690;SDS011;49837;57.280;27.070;2023-09-12T04:02:54;4.7;;;2.7;;
63690;SDS011;49837;57.280;27.070;2023-09-12T04:03:55;5.7;;;3.1;;
63690;SDS011;49837;57.280;27.070;2023-09-12T04:04:55;6.1;;;2.9;;
63690;SDS011;49837;57.280;27.070;2023-09-12T04:05:55;8.2;;;2.8;;
63690;SDS011;49837;57.280;27.070;2023-09-12T04:06:56;4.3;;;2.9;;
63690;SDS011;49837;57.280;27.070;2023-09-12T04:07:56;6.1;;;2.7;;
63690;SDS011;49837;57.280;27.070;2023-09-12T04:08:57;8.4;;;3.0;;
63690;SDS011;49837;57.280;27.070;2023-09-12T04:09:57;8.3;;;2.6;;
63690;SDS011;49837;57.280;27.070;2023-09-12T04:10:58;7.4;;;2.7;;
63690;SDS011;49837;57.280;27.070;2023-09-12T04:11:58;6.1;;;2.9;;
63690;SDS011;49837;57.280;27.070;2023-09-12T04:12:59;5.4;;;2.7;;
63690;SDS011;49837;57.280;27.070;2023-09-12T04:13:59;6.7;;;2.9;;
63690;SDS011;49837;57.280;27.070;2023-09-12T04:14:59;4.8;;;2.8;;
63690;SDS011;49837;57.280;27.070;2023-09-12T04:16:00;8.0;;;2.8;;
63690;SDS011;49837;57.280;27.070;2023-09-12T04:17:00;6.6;;;2.6;;
63690;SDS011;49837;57.280;27.070;2023-09-12T04:18:01;6.3;;;2.8;;
63690;SDS011;49837;57.280;27.070;2023-09-12T04:19:01;6.7;;;2.6;;
63690;SDS011;49837;57.280;27.070;2023-09-12T04:20:02;5.0;;;2.7;;
63690;SDS011;49837;57.280;27.070;2023-09-12T04:21:02;4.0;;;2.8;;
63690;SDS011;49837;57.280;27.070;2023-09-12T04:22:03;7.4;;;3.1;;
63690;SDS011;49837;57.280;27.070;2023-09-12T04:23:03;4.9;;;2.7;;
63690;SDS011;49837;57.280;27.070;2023-09-12T04:24:04;9.4;;;3.1;;
63690;SDS011;49837;57.280;27.070;2023-09-12T04:25:04;8.6;;;3.0;;
63690;SDS011;49837;57.280;27.070;2023-09-12T04:26:04;6.3;;;2.6;;
63690;SDS011;49837;57.280;27.070;2023-09-12T04:27:05;31.3;;;4.0;;
63690;SDS011;49837;57.280;27.070;2023-09-12T04:28:05;16.4;;;3.9;;
63690;SDS011;49837;57.280;27.070;2023-09-12T04:29:06;15.4;;;3.3;;
63690;SDS011;49837;57.280;27.070;2023-09-12T04:30:07;16.9;;;3.3;;
63690;SDS011;49837;57.280;27.070;2023-09-12T04:31:07;9.1;;;2.8;;
63690;SDS011;49837;57.280;27.070;2023-09-12T04:32:07;7.6;;;2.6;;
63690;SDS011;49837;57.280;27.070;2023-09-12T04:33:08;8.3;;;2.7;;
63690;SDS011;49837;57.280;27.070;2023-09-12T04:34:08;5.4;;;2.6;;
63690;SDS011;49837;57.280;27.070;2023-09-12T04:35:08;5.8;;;2.3;;
63690;SDS011;49837;57.280;27.070;2023-09-12T04:36:09;7.1;;;2.4;;
63690;SDS011;49837;57.280;27.070;2023-09-12T04:37:09;8.0;;;2.9;;
63690;SDS011;49837;57.280;27.070;2023-09-12T04:38:10;9.8;;;4.1;;
63690;SDS011;49837;57.280;27.070;2023-09-12T04:39:10;8.4;;;3.0;;
63690;SDS011;49837;57.280;27.070;2023-09-12T04:40:11;10.6;;;3.5;;
63690;SDS011;49837;57.280;27.070;2023-09-12T04:41:12;12.3;;;4.9;;
63690;SDS011;49837;57.280;27.070;2023-09-12T04:42:12;13.3;;;3.1;;
63690;SDS011;49837;57.280;27.070;2023-09-12T04:43:12;7.4;;;3.0;;
63690;SDS011;49837;57.280;27.070;2023-09-12T04:44:12;7.0;;;2.7;;
63690;SDS011;49837;57.280;27.070;2023-09-12T04:45:13;6.6;;;2.7;;
63690;SDS011;49837;57.280;27.070;2023-09-12T04:46:13;5.5;;;2.6;;
63690;SDS011;49837;57.280;27.070;2023-09-12T04:47:14;5.0;;;2.5;;
63690;SDS011;49837;57.280;27.070;2023-09-12T04:48:14;5.3;;;2.9;;
63690;SDS011;49837;57.280;27.070;2023-09-12T04:49:15;5.0;;;2.7;;
63690;SDS011;49837;57.280;27.070;2023-09-12T04:50:15;6.2;;;2.8;;
63690;SDS011;49837;57.280;27.070;2023-09-12T04:51:16;4.6;;;2.4;;
63690;SDS011;49837;57.280;27.070;2023-09-12T04:52:16;5.3;;;2.5;;
63690;SDS011;49837;57.280;27.070;2023-09-12T04:53:17;3.8;;;2.5;;
63690;SDS011;49837;57.280;27.070;2023-09-12T04:54:17;7.9;;;2.7;;
63690;SDS011;49837;57.280;27.070;2023-09-12T04:55:17;6.7;;;2.5;;
63690;SDS011;49837;57.280;27.070;2023-09-12T04:56:18;5.5;;;2.4;;
63690;SDS011;49837;57.280;27.070;2023-09-12T04:57:18;5.3;;;2.6;;
63690;SDS011;49837;57.280;27.070;2023-09-12T04:58:19;6.1;;;2.4;;
63690;SDS011;49837;57.280;27.070;2023-09-12T04:59:19;7.7;;;2.8;;
63690;SDS011;49837;57.280;27.070;2023-09-12T05:00:20;4.5;;;2.6;;
63690;SDS011;49837;57.280;27.070;2023-09-12T05:01:20;7.4;;;3.3;;
63690;SDS011;49837;57.280;27.070;2023-09-12T05:02:21;7.6;;;3.3;;
63690;SDS011;49837;57.280;27.070;2023-09-12T05:03:21;5.2;;;2.8;;
63690;SDS011;49837;57.280;27.070;2023-09-12T05:04:23;7.2;;;3.3;;
63690;SDS011;49837;57.280;27.070;2023-09-12T05:05:24;9.1;;;3.5;;
63690;SDS011;49837;57.280;27.070;2023-09-12T05:06:24;7.6;;;3.5;;
63690;SDS011;49837;57.280;27.070;2023-09-12T05:07:24;8.5;;;4.3;;
63690;SDS011;49837;57.280;27.070;2023-09-12T05:08:25;10.0;;;5.0;;
63690;SDS011;49837;57.280;27.070;2023-09-12T05:09:25;6.9;;;3.9;;
63690;SDS011;49837;57.280;27.070;2023-09-12T05:10:26;10.1;;;4.1;;
63690;SDS011;49837;57.280;27.070;2023-09-12T05:11:26;6.2;;;4.1;;
63690;SDS011;49837;57.280;27.070;2023-09-12T05:12:27;8.1;;;3.8;;
63690;SDS011;49837;57.280;27.070;2023-09-12T05:13:27;9.8;;;3.9;;
63690;SDS011;49837;57.280;27.070;2023-09-12T05:14:28;9.0;;;3.5;;
63690;SDS011;49837;57.280;27.070;2023-09-12T05:15:28;8.1;;;3.7;;
63690;SDS011;49837;57.280;27.070;2023-09-12T05:16:29;6.7;;;3.5;;
63690;SDS011;49837;57.280;27.070;2023-09-12T05:17:29;9.5;;;3.6;;
63690;SDS011;49837;57.280;27.070;2023-09-12T05:18:29;6.4;;;3.4;;
63690;SDS011;49837;57.280;27.070;2023-09-12T05:19:30;6.6;;;3.9;;
63690;SDS011;49837;57.280;27.070;2023-09-12T05:20:30;6.6;;;3.8;;
63690;SDS011;49837;57.280;27.070;2023-09-12T05:21:31;7.5;;;3.7;;
63690;SDS011;49837;57.280;27.070;2023-09-12T05:22:31;8.4;;;3.5;;
63690;SDS011;49837;57.280;27.070;2023-09-12T05:23:32;7.3;;;3.7;;
63690;SDS011;49837;57.280;27.070;2023-09-12T05:24:32;9.2;;;3.7;;
63690;SDS011;49837;57.280;27.070;2023-09-12T05:25:33;6.9;;;3.6;;
63690;SDS011;49837;57.280;27.070;2023-09-12T05:26:33;7.9;;;3.3;;
63690;SDS011;49837;57.280;27.070;2023-09-12T05:27:34;5.3;;;3.1;;
63690;SDS011;49837;57.280;27.070;2023-09-12T05:28:34;6.0;;;3.5;;
63690;SDS011;49837;57.280;27.070;2023-09-12T05:29:35;8.3;;;3.1;;
63690;SDS011;49837;57.280;27.070;2023-09-12T05:30:35;8.4;;;3.4;;
63690;SDS011;49837;57.280;27.070;2023-09-12T05:31:35;4.9;;;2.8;;
63690;SDS011;49837;57.280;27.070;2023-09-12T05:32:36;7.1;;;2.8;;
63690;SDS011;49837;57.280;27.070;2023-09-12T05:33:36;6.0;;;2.7;;
63690;SDS011;49837;57.280;27.070;2023-09-12T05:34:37;7.1;;;3.0;;
63690;SDS011;49837;57.280;27.070;2023-09-12T05:35:37;6.6;;;3.0;;
63690;SDS011;49837;57.280;27.070;2023-09-12T05:36:38;7.8;;;3.3;;
63690;SDS011;49837;57.280;27.070;2023-09-12T05:37:38;5.9;;;3.3;;
63690;SDS011;49837;57.280;27.070;2023-09-12T05:38:39;7.1;;;3.2;;
63690;SDS011;49837;57.280;27.070;2023-09-12T05:39:39;5.5;;;2.8;;
63690;SDS011;49837;57.280;27.070;2023-09-12T05:40:40;8.2;;;2.4;;
63690;SDS011;49837;57.280;27.070;2023-09-12T05:41:40;8.0;;;2.6;;
63690;SDS011;49837;57.280;27.070;2023-09-12T05:42:41;5.9;;;2.6;;
63690;SDS011;49837;57.280;27.070;2023-09-12T05:43:41;6.5;;;2.9;;
63690;SDS011;49837;57.280;27.070;2023-09-12T05:44:42;7.4;;;3.0;;
63690;SDS011;49837;57.280;27.070;2023-09-12T05:45:42;5.2;;;3.0;;
63690;SDS011;49837;57.280;27.070;2023-09-12T05:46:43;8.3;;;2.9;;
63690;SDS011;49837;57.280;27.070;2023-09-12T05:47:44;4.7;;;2.7;;
63690;SDS011;49837;57.280;27.070;2023-09-12T05:48:45;7.0;;;2.7;;
63690;SDS011;49837;57.280;27.070;2023-09-12T05:49:45;4.0;;;2.3;;
63690;SDS011;49837;57.280;27.070;2023-09-12T05:50:45;6.7;;;2.8;;
63690;SDS011;49837;57.280;27.070;2023-09-12T05:51:46;7.6;;;2.6;;
63690;SDS011;49837;57.280;27.070;2023-09-12T05:52:46;5.3;;;2.2;;
63690;SDS011;49837;57.280;27.070;2023-09-12T05:53:47;4.5;;;2.2;;
63690;SDS011;49837;57.280;27.070;2023-09-12T05:54:47;4.7;;;2.6;;
63690;SDS011;49837;57.280;27.070;2023-09-12T05:55:47;6.1;;;2.4;;
63690;SDS011;49837;57.280;27.070;2023-09-12T05:56:48;7.6;;;2.5;;
63690;SDS011;49837;57.280;27.070;2023-09-12T05:57:48;3.9;;;2.1;;
63690;SDS011;49837;57.280;27.070;2023-09-12T05:58:48;6.7;;;2.6;;
63690;SDS011;49837;57.280;27.070;2023-09-12T05:59:49;7.0;;;2.5;;
63690;SDS011;49837;57.280;27.070;2023-09-12T06:00:49;8.9;;;2.4;;
63690;SDS011;49837;57.280;27.070;2023-09-12T06:01:49;7.2;;;2.1;;
63690;SDS011;49837;57.280;27.070;2023-09-12T06:02:50;4.2;;;2.1;;
63690;SDS011;49837;57.280;27.070;2023-09-12T06:03:50;5.6;;;2.1;;
63690;SDS011;49837;57.280;27.070;2023-09-12T06:04:51;5.1;;;2.1;;
63690;SDS011;49837;57.280;27.070;2023-09-12T06:05:51;3.2;;;2.0;;
63690;SDS011;49837;57.280;27.070;2023-09-12T06:06:51;4.9;;;1.9;;
63690;SDS011;49837;57.280;27.070;2023-09-12T06:07:52;5.9;;;2.1;;
63690;SDS011;49837;57.280;27.070;2023-09-12T06:08:52;5.7;;;2.2;;
63690;SDS011;49837;57.280;27.070;2023-09-12T06:09:53;5.4;;;2.2;;
63690;SDS011;49837;57.280;27.070;2023-09-12T06:10:53;3.4;;;2.2;;
63690;SDS011;49837;57.280;27.070;2023-09-12T06:11:53;3.7;;;2.0;;
63690;SDS011;49837;57.280;27.070;2023-09-12T06:12:54;5.4;;;2.1;;